Time;durP1;ratioP1;P1;durP2;ratioP2;P2;SDS_P1;SDS_P2;PMS_P1;PMS_P2;Temp;Humidity;BMP_temperature;BMP_pressure;BME280_temperature;BME280_humidity;BME280_pressure;Samples;Min_cycle;Max_cycle;Signal;HPM_P1;HPM_P2
2022/12/21 00:02:03;;;;;;;10.57;3.42;;;14.90;46.40;;;;;;6247075;28;20038;-78
2022/12/21 00:05:05;;;;;;;11.68;3.85;;;15.00;46.80;;;;;;6264773;28;20037;-78
2022/12/21 00:08:06;;;;;;;7.65;3.50;;;14.90;46.40;;;;;;6259418;28;20045;-77
2022/12/21 00:11:08;;;;;;;7.60;3.33;;;15.00;46.40;;;;;;6259357;28;20045;-79
2022/12/21 00:14:09;;;;;;;6.35;3.08;;;15.00;46.40;;;;;;6258456;28;20049;-78
2022/12/21 00:17:10;;;;;;;9.25;3.58;;;15.10;46.20;;;;;;6256003;28;20100;-77
2022/12/21 00:20:11;;;;;;;10.95;3.45;;;15.20;46.10;;;;;;6240226;28;20098;-78
2022/12/21 00:23:12;;;;;;;10.55;3.42;;;15.20;46.00;;;;;;6240756;28;20038;-77
2022/12/21 00:26:15;;;;;;;7.07;3.38;;;15.20;45.90;;;;;;6242558;28;20064;-78
2022/12/21 00:29:16;;;;;;;6.82;3.30;;;15.20;45.90;;;;;;6247509;28;20061;-78
2022/12/21 00:32:19;;;;;;;10.35;3.90;;;15.20;45.80;;;;;;6247895;28;20052;-78
2022/12/21 00:35:20;;;;;;;10.30;3.72;;;15.10;45.90;;;;;;6262129;28;20037;-78
2022/12/21 00:38:21;;;;;;;10.90;3.95;;;15.10;45.90;;;;;;6260802;28;20379;-79
2022/12/21 00:41:24;;;;;;;11.55;3.85;;;15.10;46.00;;;;;;6262145;28;20051;-80
2022/12/21 00:44:24;;;;;;;7.55;4.00;;;15.10;46.60;;;;;;6261784;28;20064;-77
2022/12/21 00:47:25;;;;;;;7.50;3.95;;;15.10;46.00;;;;;;6244858;28;20037;-79
2022/12/21 00:50:26;;;;;;;11.45;4.30;;;15.10;46.00;;;;;;6245393;28;20045;-78
2022/12/21 00:53:27;;;;;;;9.65;3.92;;;15.00;46.10;;;;;;6236058;28;20037;-78
2022/12/21 00:56:29;;;;;;;14.40;4.57;;;15.00;46.20;;;;;;6242375;28;20601;-78
2022/12/21 00:59:30;;;;;;;13.95;4.22;;;15.00;46.40;;;;;;6237456;28;20437;-78
2022/12/21 01:02:31;;;;;;;11.98;4.65;;;14.90;46.50;;;;;;6223170;28;20041;-78
2022/12/21 01:05:32;;;;;;;13.75;4.50;;;14.90;46.80;;;;;;6243241;28;20640;-79
2022/12/21 01:08:33;;;;;;;11.20;4.43;;;14.90;46.80;;;;;;6260046;28;20045;-78
2022/12/21 01:11:34;;;;;;;14.10;5.32;;;14.80;47.00;;;;;;6245593;28;20052;-78
2022/12/21 01:14:37;;;;;;;10.02;4.35;;;14.80;47.20;;;;;;6247193;28;20363;-78
2022/12/21 01:17:39;;;;;;;11.95;4.80;;;14.70;47.20;;;;;;6247003;28;20065;-78
2022/12/21 01:20:42;;;;;;;12.43;4.47;;;14.70;47.40;;;;;;6249628;28;20038;-78
2022/12/21 01:23:42;;;;;;;13.77;4.50;;;14.70;47.70;;;;;;6214110;28;20058;-78
2022/12/21 01:26:43;;;;;;;9.90;4.10;;;14.60;47.90;;;;;;6219391;28;20057;-79
2022/12/21 01:29:44;;;;;;;8.68;4.07;;;14.50;48.00;;;;;;6218967;28;20108;-78
2022/12/21 01:32:45;;;;;;;9.98;4.32;;;14.50;48.10;;;;;;6246486;28;20455;-78
2022/12/21 01:35:46;;;;;;;11.02;3.78;;;14.50;48.10;;;;;;6288192;28;20032;-78
2022/12/21 01:38:47;;;;;;;6.70;3.22;;;14.50;48.10;;;;;;6263651;28;20045;-78
2022/12/21 01:41:48;;;;;;;10.70;3.90;;;14.50;48.30;;;;;;6234796;28;20034;-77
2022/12/21 01:45:02;;;;;;;9.77;3.47;;;14.50;48.30;;;;;;6262663;28;20052;-77
2022/12/21 01:48:10;;;;;;;15.10;4.53;;;14.50;48.30;;;;;;6241365;28;20049;-78
2022/12/21 01:51:12;;;;;;;11.83;4.17;;;14.50;48.30;;;;;;6228483;28;20510;-78
2022/12/21 01:54:18;;;;;;;9.43;3.85;;;14.50;48.50;;;;;;6243549;28;20264;-79
2022/12/21 01:57:20;;;;;;;8.48;4.03;;;14.50;48.40;;;;;;6243675;28;20427;-79
2022/12/21 02:00:21;;;;;;;11.60;4.22;;;14.50;48.40;;;;;;6243846;28;20034;-78
2022/12/21 02:03:25;;;;;;;8.90;4.00;;;14.50;48.40;;;;;;6254424;28;20514;-77
2022/12/21 02:06:34;;;;;;;10.48;3.78;;;14.50;48.40;;;;;;6252188;28;20026;-79
2022/12/21 02:09:36;;;;;;;9.10;3.45;;;14.50;48.70;;;;;;6276420;28;20127;-79
2022/12/21 02:12:38;;;;;;;6.25;3.70;;;14.50;48.90;;;;;;6261917;28;20033;-79
2022/12/21 02:16:00;;;;;;;6.15;3.28;;;14.40;49.30;;;;;;6246812;28;20394;-78
2022/12/21 02:19:24;;;;;;;15.05;4.72;;;14.30;49.50;;;;;;6235651;28;20482;-78
2022/12/21 02:22:34;;;;;;;7.18;4.00;;;14.30;50.00;;;;;;6211023;28;20045;-78
2022/12/21 02:25:47;;;;;;;12.70;4.25;;;14.20;50.10;;;;;;6228595;28;20053;-79
2022/12/21 02:29:00;;;;;;;7.35;3.95;;;14.20;50.40;;;;;;6260322;28;20038;-79
2022/12/21 02:32:46;;;;;;;8.35;3.63;;;14.20;50.40;;;;;;6219588;28;20049;-78
2022/12/21 02:36:26;;;;;;;10.77;3.60;;;14.00;50.40;;;;;;6199117;28;20121;-78
2022/12/21 02:39:46;;;;;;;;;;;14.20;50.80;;;;;;6100011;29;20116;-78
2022/12/21 02:46:40;;;;;;;6.93;3.15;;;14.10;51.50;;;;;;6096525;29;20123;-78
2022/12/21 02:50:12;;;;;;;9.40;3.88;;;14.00;52.10;;;;;;6095955;29;20430;-79
2022/12/21 02:53:19;;;;;;;12.00;3.80;;;13.90;52.50;;;;;;6083231;29;20079;-78
2022/12/21 02:56:21;;;;;;;5.88;3.40;;;13.90;52.60;;;;;;6096692;29;20604;-79
2022/12/21 02:59:28;;;;;;;11.02;4.35;;;13.90;52.60;;;;;;6097358;29;20036;-79
2022/12/21 03:02:32;;;;;;;9.40;3.58;;;13.90;52.70;;;;;;6101438;29;20043;-78
2022/12/21 03:05:47;;;;;;;6.78;3.28;;;13.90;52.70;;;;;;6114358;29;20067;-80
2022/12/21 03:09:04;;;;;;;8.85;4.45;;;13.90;53.00;;;;;;6087875;29;20036;-78
2022/12/21 03:12:35;;;;;;;6.32;3.60;;;13.90;53.10;;;;;;6089303;28;20043;-79
2022/12/21 03:15:59;;;;;;;7.25;2.75;;;14.00;53.30;;;;;;6185764;28;20140;-78
2022/12/21 03:19:00;;;;;;;13.07;3.28;;;13.90;53.60;;;;;;6237470;28;20069;-78
2022/12/21 03:22:08;;;;;;;9.98;3.45;;;13.90;53.70;;;;;;6278765;28;20112;-78
2022/12/21 03:25:25;;;;;;;13.02;4.22;;;13.90;54.10;;;;;;6267231;28;20355;-78
2022/12/21 03:28:30;;;;;;;8.90;3.08;;;13.90;54.30;;;;;;6234818;28;20046;-77
2022/12/21 03:31:37;;;;;;;6.10;2.95;;;13.80;54.40;;;;;;6218172;28;20037;-78
2022/12/21 03:34:42;;;;;;;8.57;3.70;;;13.70;54.60;;;;;;6243412;28;20493;-79
2022/12/21 03:37:46;;;;;;;7.53;3.33;;;13.70;54.70;;;;;;6259171;28;20038;-78
2022/12/21 03:40:53;;;;;;;7.82;3.72;;;13.70;54.70;;;;;;6243883;28;20434;-78
2022/12/21 03:48:24;;;;;;;12.05;3.10;;;13.70;55.00;;;;;;6235012;28;20454;-78
2022/12/21 03:51:45;;;;;;;9.75;3.58;;;13.70;55.20;;;;;;6221022;28;20030;-79
2022/12/21 03:55:05;;;;;;;11.10;3.20;;;13.70;55.30;;;;;;6234833;28;20483;-77
2022/12/21 03:58:07;;;;;;;7.93;3.30;;;13.70;55.10;;;;;;6219008;28;20459;-76
2022/12/21 04:01:23;;;;;;;8.40;3.47;;;13.70;55.10;;;;;;6241289;28;20080;-78
2022/12/21 04:04:50;;;;;;;8.27;3.00;;;13.70;55.10;;;;;;6256776;28;20120;-78
2022/12/21 04:07:52;;;;;;;7.97;2.95;;;13.80;55.30;;;;;;6232425;28;20049;-78
2022/12/21 04:10:53;;;;;;;7.18;3.00;;;13.80;55.20;;;;;;6233725;28;20034;-78
2022/12/21 04:13:54;;;;;;;6.63;2.97;;;13.90;55.10;;;;;;6240414;28;20038;-78
2022/12/21 04:16:55;;;;;;;9.98;3.42;;;13.90;55.10;;;;;;6241731;28;20382;-78
2022/12/21 04:19:58;;;;;;;10.05;2.67;;;13.90;55.10;;;;;;6241689;28;20037;-78
2022/12/21 04:29:44;;;;;;;14.32;5.18;;;14.00;55.00;;;;;;6241108;28;20057;-77
2022/12/21 04:32:45;;;;;;;8.10;3.40;;;14.00;55.00;;;;;;6240228;28;20448;-78
2022/12/21 04:39:05;;;;;;;6.13;2.70;;;14.00;54.90;;;;;;6230527;28;20061;-79
2022/12/21 04:42:06;;;;;;;8.93;3.03;;;14.00;55.00;;;;;;6238180;28;20033;-78
2022/12/21 04:45:08;;;;;;;6.50;3.25;;;13.90;55.10;;;;;;6239594;28;20029;-78
2022/12/21 04:48:09;;;;;;;6.90;2.72;;;13.90;55.20;;;;;;6239126;28;20046;-79
2022/12/21 04:51:15;;;;;;;6.03;2.90;;;13.90;55.50;;;;;;6236378;28;20414;-79
2022/12/21 04:54:16;;;;;;;13.20;3.58;;;13.90;55.50;;;;;;6237296;28;20041;-78
2022/12/21 04:57:17;;;;;;;5.47;2.58;;;13.90;55.50;;;;;;6254510;28;20029;-77
2022/12/21 05:00:18;;;;;;;5.72;3.08;;;13.90;55.50;;;;;;6255694;28;20364;-78
2022/12/21 05:03:19;;;;;;;4.93;2.80;;;13.90;55.50;;;;;;6244776;28;20026;-79
2022/12/21 05:06:20;;;;;;;8.30;3.33;;;13.90;55.40;;;;;;6191485;28;20391;-79
2022/12/21 05:09:21;;;;;;;5.63;3.08;;;13.90;55.40;;;;;;6178494;28;20437;-79
2022/12/21 05:12:22;;;;;;;5.72;2.88;;;13.90;55.40;;;;;;6191655;28;20092;-78
2022/12/21 05:15:22;;;;;;;6.75;3.13;;;13.80;55.40;;;;;;6207503;28;20070;-78
2022/12/21 05:18:23;;;;;;;5.68;2.65;;;13.80;55.40;;;;;;6214640;28;20045;-78
2022/12/21 05:21:25;;;;;;;10.60;2.92;;;13.80;55.50;;;;;;6245671;28;20121;-78
2022/12/21 05:24:26;;;;;;;6.22;2.55;;;13.80;55.60;;;;;;6242932;28;20047;-78
2022/12/21 05:27:27;;;;;;;5.60;2.78;;;13.80;55.70;;;;;;6259461;28;20041;-79
2022/12/21 05:30:28;;;;;;;10.00;2.83;;;13.80;55.80;;;;;;6259426;28;20045;-78
2022/12/21 05:33:29;;;;;;;6.93;3.10;;;13.80;55.80;;;;;;6241738;28;20033;-78
2022/12/21 05:36:30;;;;;;;8.00;2.55;;;13.80;55.80;;;;;;6241912;28;20048;-79
2022/12/21 05:39:31;;;;;;;8.20;2.75;;;13.80;55.80;;;;;;6242826;28;20069;-78
2022/12/21 05:42:33;;;;;;;6.18;3.10;;;13.90;55.90;;;;;;6241679;28;20033;-78
2022/12/21 05:45:34;;;;;;;6.03;3.10;;;13.80;55.90;;;;;;6242686;28;20115;-78
2022/12/21 05:48:36;;;;;;;10.50;3.55;;;13.90;55.90;;;;;;6243824;28;20133;-78
2022/12/21 05:51:37;;;;;;;14.57;3.22;;;13.90;55.80;;;;;;6243787;28;20103;-79
2022/12/21 05:54:38;;;;;;;6.13;3.35;;;13.90;55.80;;;;;;6259105;28;20045;-79
2022/12/21 05:57:39;;;;;;;6.32;2.80;;;13.90;55.80;;;;;;6260336;28;20041;-78
2022/12/21 06:00:41;;;;;;;6.40;3.22;;;13.80;55.80;;;;;;6260358;28;20393;-79
2022/12/21 06:03:42;;;;;;;6.65;2.67;;;13.90;55.90;;;;;;6258481;28;20047;-80
2022/12/21 06:06:45;;;;;;;5.13;2.90;;;13.90;56.00;;;;;;6253385;28;20111;-78
2022/12/21 06:09:46;;;;;;;10.07;3.10;;;13.80;56.20;;;;;;6228083;28;20038;-78
2022/12/21 06:12:47;;;;;;;6.72;2.42;;;13.80;56.40;;;;;;6242881;28;20053;-78
2022/12/21 06:15:48;;;;;;;5.80;3.28;;;13.80;56.50;;;;;;6260555;28;20187;-77
2022/12/21 06:18:51;;;;;;;4.93;2.60;;;13.80;56.60;;;;;;6248962;28;20370;-78
2022/12/21 06:21:53;;;;;;;5.35;2.60;;;13.80;56.80;;;;;;6209362;28;20414;-79
2022/12/21 06:24:54;;;;;;;9.07;3.55;;;13.80;56.90;;;;;;6236564;28;20038;-80
2022/12/21 06:27:55;;;;;;;10.32;2.58;;;13.80;57.00;;;;;;6235032;28;20058;-78
2022/12/21 06:31:03;;;;;;;5.80;2.30;;;13.80;57.00;;;;;;6244347;28;20040;-79
2022/12/21 06:34:04;;;;;;;4.93;2.15;;;13.90;56.90;;;;;;6261608;28;20040;-78
2022/12/21 06:37:05;;;;;;;8.35;3.30;;;13.90;56.80;;;;;;6267755;28;20386;-78
2022/12/21 06:40:08;;;;;;;6.57;2.28;;;14.00;56.90;;;;;;6260881;28;20072;-79
2022/12/21 06:43:08;;;;;;;6.35;2.70;;;14.00;56.80;;;;;;6281590;28;20411;-79
2022/12/21 06:46:12;;;;;;;12.02;2.08;;;14.10;56.80;;;;;;6260926;28;20037;-78
2022/12/21 06:49:13;;;;;;;4.10;2.10;;;14.10;56.90;;;;;;6241646;28;20041;-78
2022/12/21 06:52:14;;;;;;;8.75;2.88;;;14.00;57.00;;;;;;6243063;28;20116;-78
2022/12/21 06:55:15;;;;;;;7.80;2.53;;;14.00;57.10;;;;;;6243365;28;20051;-78
2022/12/21 06:58:16;;;;;;;4.75;2.35;;;14.00;57.30;;;;;;6260497;28;20064;-79
2022/12/21 07:01:20;;;;;;;8.88;2.72;;;14.00;57.50;;;;;;6236215;28;20066;-78
2022/12/21 07:04:20;;;;;;;9.93;3.05;;;13.90;57.60;;;;;;6224339;28;20069;-78
2022/12/21 07:07:21;;;;;;;5.28;2.80;;;13.90;57.80;;;;;;6248573;28;20029;-78
2022/12/21 07:10:22;;;;;;;6.15;3.22;;;13.80;58.10;;;;;;6242823;28;20370;-78
2022/12/21 07:13:25;;;;;;;6.03;2.70;;;13.80;58.50;;;;;;6256270;28;20052;-79
2022/12/21 07:16:26;;;;;;;4.90;2.83;;;13.70;58.70;;;;;;6244399;28;20593;-79
2022/12/21 07:19:29;;;;;;;7.63;3.53;;;13.70;58.90;;;;;;6243891;28;20052;-78
2022/12/21 07:22:30;;;;;;;6.75;2.83;;;13.70;59.10;;;;;;6243169;28;20106;-78
2022/12/21 07:25:32;;;;;;;5.75;3.10;;;13.70;59.30;;;;;;6259319;28;20455;-78
2022/12/21 07:28:32;;;;;;;9.13;2.90;;;13.60;59.60;;;;;;6241547;28;20099;-78
2022/12/21 07:31:33;;;;;;;6.43;2.58;;;13.60;59.90;;;;;;6216565;28;20042;-79
2022/12/21 07:34:34;;;;;;;11.05;3.47;;;13.50;60.40;;;;;;6236185;28;20086;-77
2022/12/21 07:37:35;;;;;;;5.75;2.78;;;13.50;60.50;;;;;;6280980;28;20082;-78
2022/12/21 07:40:36;;;;;;;8.75;3.17;;;13.50;60.60;;;;;;6266076;28;20042;-78
2022/12/21 07:43:37;;;;;;;11.52;3.45;;;13.50;60.70;;;;;;6269552;28;20033;-78
2022/12/21 07:47:01;;;;;;;14.57;3.38;;;13.50;61.00;;;;;;6216428;28;20065;-78
2022/12/21 07:50:03;;;;;;;9.82;3.97;;;13.50;61.40;;;;;;6201237;28;20049;-78
2022/12/21 07:53:04;;;;;;;13.07;3.92;;;13.50;61.80;;;;;;6200462;28;20052;-78
2022/12/21 07:56:10;;;;;;;15.70;4.72;;;13.40;62.30;;;;;;6216316;28;20101;-79
2022/12/21 07:59:11;;;;;;;14.85;3.45;;;13.40;62.50;;;;;;6200269;28;20108;-79
2022/12/21 08:02:12;;;;;;;6.40;3.25;;;13.50;62.60;;;;;;6202547;28;20065;-78
2022/12/21 08:05:13;;;;;;;10.85;3.42;;;13.50;62.60;;;;;;6225210;28;20120;-79
2022/12/21 08:08:14;;;;;;;11.15;3.83;;;13.50;62.50;;;;;;6225029;28;20119;-78
2022/12/21 08:11:18;;;;;;;7.03;2.88;;;13.50;62.50;;;;;;6208924;28;20120;-79
2022/12/21 08:14:19;;;;;;;16.38;3.80;;;13.60;62.50;;;;;;6197948;28;20356;-79
2022/12/21 08:17:20;;;;;;;7.53;3.95;;;13.70;62.30;;;;;;6199856;28;20113;-78
2022/12/21 08:20:21;;;;;;;6.05;3.38;;;13.70;62.20;;;;;;6203744;28;20034;-78
2022/12/21 08:23:22;;;;;;;7.95;3.50;;;13.70;62.20;;;;;;6225150;28;20033;-79
2022/12/21 08:26:23;;;;;;;6.00;3.13;;;13.80;62.30;;;;;;6242443;28;20322;-78
2022/12/21 08:29:24;;;;;;;10.75;3.50;;;13.80;62.50;;;;;;6252402;28;20092;-79
2022/12/21 08:32:25;;;;;;;12.23;4.25;;;13.80;62.60;;;;;;6257020;28;20049;-78
2022/12/21 08:35:29;;;;;;;6.75;2.83;;;13.70;62.60;;;;;;6241840;28;20248;-79
2022/12/21 08:38:29;;;;;;;7.95;3.22;;;13.70;62.90;;;;;;6233739;28;20404;-79
2022/12/21 08:41:30;;;;;;;9.05;3.70;;;13.70;63.10;;;;;;6224142;28;20037;-79
2022/12/21 08:44:32;;;;;;;21.25;5.88;;;13.70;63.30;;;;;;6216394;28;20069;-79
2022/12/21 08:47:33;;;;;;;9.43;4.18;;;13.60;63.30;;;;;;6216541;28;20455;-79
2022/12/21 08:50:34;;;;;;;9.18;2.85;;;13.60;63.30;;;;;;6219136;28;20049;-78
2022/12/21 08:53:36;;;;;;;7.63;3.83;;;13.70;63.40;;;;;;6232529;28;20045;-79
2022/12/21 08:56:37;;;;;;;8.45;3.63;;;13.70;63.30;;;;;;6223125;28;20030;-79
2022/12/21 08:59:38;;;;;;;10.48;4.78;;;13.80;63.40;;;;;;6225453;28;20422;-79
2022/12/21 09:02:39;;;;;;;9.70;3.60;;;13.80;63.50;;;;;;6252880;28;20124;-80
2022/12/21 09:05:40;;;;;;;14.90;3.92;;;13.80;63.60;;;;;;6280881;28;20029;-79
2022/12/21 09:08:42;;;;;;;15.65;4.60;;;13.80;63.70;;;;;;6239388;28;20067;-79
2022/12/21 09:11:43;;;;;;;13.10;4.75;;;13.80;63.90;;;;;;6266349;28;20045;-80
2022/12/21 09:14:44;;;;;;;11.05;4.07;;;13.90;64.00;;;;;;6250826;28;20053;-79
2022/12/21 09:17:45;;;;;;;11.32;5.30;;;13.90;64.00;;;;;;6241134;28;20041;-78
2022/12/21 09:20:46;;;;;;;16.23;6.10;;;13.80;64.20;;;;;;6227866;28;20034;-79
2022/12/21 09:23:48;;;;;;;16.60;4.70;;;13.80;64.30;;;;;;6240691;28;20037;-79
2022/12/21 09:26:50;;;;;;;7.95;4.32;;;13.70;64.50;;;;;;6219293;28;20044;-79
2022/12/21 09:29:52;;;;;;;19.52;4.75;;;13.70;64.60;;;;;;6221650;28;20467;-78
2022/12/21 09:32:53;;;;;;;8.52;3.80;;;13.80;64.60;;;;;;6236316;28;20029;-79
2022/12/21 09:35:54;;;;;;;14.77;5.18;;;13.80;64.60;;;;;;6271052;28;20513;-79
2022/12/21 09:38:55;;;;;;;9.85;3.65;;;13.80;64.60;;;;;;6247956;28;20486;-79
2022/12/21 09:42:21;;;;;;;10.27;3.90;;;13.80;64.50;;;;;;6248148;28;20336;-79
2022/12/21 09:45:35;;;;;;;9.10;4.22;;;13.90;64.50;;;;;;6285098;28;20041;-79
2022/12/21 09:48:45;;;;;;;14.70;3.92;;;14.00;64.40;;;;;;6261033;28;20040;-79
2022/12/21 09:51:55;;;;;;;21.10;6.97;;;14.00;64.30;;;;;;6223274;28;20371;-78
2022/12/21 09:55:06;;;;;;;20.33;8.32;;;14.10;64.30;;;;;;6219131;28;20108;-80
2022/12/21 09:58:15;;;;;;;13.02;6.35;;;14.10;64.30;;;;;;6220768;28;20038;-79
2022/12/21 10:01:37;;;;;;;23.00;7.20;;;14.20;64.30;;;;;;6216315;28;20531;-79
2022/12/21 10:04:57;;;;;;;15.32;6.57;;;14.20;64.10;;;;;;6262725;28;20036;-79
2022/12/21 10:08:25;;;;;;;11.95;4.65;;;14.20;64.10;;;;;;6268793;28;20100;-79
2022/12/21 10:11:44;;;;;;;16.58;5.07;;;14.20;64.20;;;;;;6269836;28;20033;-78
2022/12/21 10:15:08;;;;;;;;;;;14.20;64.30;;;;;;6243443;28;20095;-80
2022/12/21 10:18:38;;;;;;;34.05;11.95;;;14.10;64.40;;;;;;6237787;28;19932;-79
2022/12/21 10:21:57;;;;;;;55.03;18.77;;;14.10;64.60;;;;;;6199612;28;20045;-80
2022/12/21 10:25:00;;;;;;;;;;;14.20;64.60;;;;;;6234413;28;20067;-78
2022/12/21 10:28:34;;;;;;;14.48;5.75;;;14.20;64.70;;;;;;6218199;28;19917;-79
2022/12/21 10:31:45;;;;;;;19.45;5.03;;;14.30;64.50;;;;;;6218013;28;20121;-79
2022/12/21 10:34:48;;;;;;;16.65;5.63;;;14.40;64.40;;;;;;6259754;28;20032;-80
2022/12/21 10:37:52;;;;;;;14.60;6.80;;;14.40;64.30;;;;;;6269850;28;20048;-80
2022/12/21 10:40:54;;;;;;;14.63;6.00;;;14.40;64.40;;;;;;6287195;28;20033;-79
2022/12/21 10:43:59;;;;;;;12.23;5.35;;;14.40;64.50;;;;;;6273569;28;20044;-78
2022/12/21 10:47:00;;;;;;;15.70;5.35;;;14.40;64.50;;;;;;6252326;28;20060;-78
2022/12/21 10:50:28;;;;;;;15.43;6.18;;;14.50;64.50;;;;;;6250447;28;20045;-78
2022/12/21 10:53:29;;;;;;;17.67;7.55;;;14.60;64.50;;;;;;6250747;28;20044;-79
2022/12/21 10:56:34;;;;;;;22.85;8.85;;;14.60;64.30;;;;;;6268096;28;20156;-79
2022/12/21 10:59:40;;;;;;;26.42;10.07;;;14.70;64.30;;;;;;6268497;28;20095;-78
2022/12/21 11:02:45;;;;;;;30.00;10.93;;;14.70;64.30;;;;;;6257066;28;20048;-80
2022/12/21 11:05:45;;;;;;;26.33;10.98;;;14.70;64.30;;;;;;6271280;28;20028;-79
2022/12/21 11:08:52;;;;;;;26.65;10.73;;;14.80;64.20;;;;;;6278027;28;20509;-78
2022/12/21 11:11:54;;;;;;;24.52;8.40;;;14.90;64.10;;;;;;6274517;28;20367;-78
2022/12/21 11:14:55;;;;;;;21.92;7.65;;;15.00;63.90;;;;;;6245425;28;20068;-78
2022/12/21 11:17:56;;;;;;;19.85;7.20;;;15.00;63.60;;;;;;6243260;28;20052;-79
2022/12/21 11:20:57;;;;;;;22.42;8.35;;;14.90;63.60;;;;;;6243100;28;20049;-80
2022/12/21 11:24:22;;;;;;;19.17;7.97;;;14.90;63.60;;;;;;6240171;28;20082;-78
2022/12/21 11:27:26;;;;;;;12.15;6.53;;;14.90;63.70;;;;;;6255863;28;20132;-79
2022/12/21 11:30:31;;;;;;;37.30;12.30;;;14.90;63.70;;;;;;6249471;28;20120;-79
2022/12/21 11:33:33;;;;;;;33.63;11.50;;;14.90;63.60;;;;;;6258506;28;20041;-78
2022/12/21 11:36:52;;;;;;;23.45;9.05;;;15.00;63.50;;;;;;6258747;28;20044;-79
2022/12/21 11:39:58;;;;;;;31.92;11.80;;;15.00;63.50;;;;;;6257637;28;20111;-79
2022/12/21 11:42:59;;;;;;;31.23;11.73;;;15.00;63.50;;;;;;6257033;28;20040;-79
2022/12/21 11:46:06;;;;;;;22.13;7.97;;;15.00;63.50;;;;;;6240547;28;20076;-80
2022/12/21 11:49:22;;;;;;;53.63;17.63;;;15.00;63.60;;;;;;6258178;28;20126;-80
2022/12/21 11:52:26;;;;;;;33.10;10.10;;;15.00;63.60;;;;;;6242467;28;20033;-79
2022/12/21 11:55:35;;;;;;;18.15;7.63;;;15.00;63.60;;;;;;6241200;28;20038;-80
2022/12/21 11:58:40;;;;;;;43.92;16.30;;;15.00;63.80;;;;;;6259080;28;20112;-79
2022/12/21 12:01:50;;;;;;;33.67;12.82;;;15.00;63.90;;;;;;6260717;28;20030;-78
2022/12/21 12:05:28;;;;;;;32.70;12.40;;;15.00;63.90;;;;;;6278461;28;20087;-79
2022/12/21 12:08:42;;;;;;;23.80;9.23;;;15.00;64.20;;;;;;6281744;28;20044;-79
2022/12/21 12:12:19;;;;;;;18.70;7.55;;;15.00;64.30;;;;;;6259416;28;20034;-78
2022/12/21 12:15:19;;;;;;;15.88;6.10;;;15.00;64.30;;;;;;6177154;28;20058;-78
2022/12/21 12:18:48;;;;;;;20.05;6.57;;;15.10;64.30;;;;;;6186908;28;20045;-79
2022/12/21 12:22:28;;;;;;;14.30;7.07;;;15.10;64.30;;;;;;6155212;28;20038;-79
2022/12/21 12:25:41;;;;;;;16.65;6.78;;;15.20;64.10;;;;;;6082723;29;20166;-78
2022/12/21 12:28:58;;;;;;;23.63;9.70;;;15.20;63.90;;;;;;6120301;29;20052;-80
2022/12/21 12:32:17;;;;;;;29.80;7.93;;;15.20;64.00;;;;;;6120571;28;20149;-79
2022/12/21 12:35:38;;;;;;;20.33;8.05;;;15.30;64.10;;;;;;6146801;28;20031;-78
2022/12/21 12:39:18;;;;;;;20.48;8.30;;;15.30;64.10;;;;;;6136244;28;20085;-79
2022/12/21 12:42:31;;;;;;;14.88;6.93;;;15.30;64.20;;;;;;6147117;28;20101;-80
2022/12/21 12:46:00;;;;;;;15.93;5.68;;;15.40;64.20;;;;;;6154651;28;20084;-78
2022/12/21 12:49:19;;;;;;;14.68;5.95;;;15.50;64.00;;;;;;6169726;28;20073;-79
2022/12/21 12:52:38;;;;;;;10.10;5.20;;;15.50;63.60;;;;;;6133133;28;20035;-79
2022/12/21 12:56:00;;;;;;;13.23;5.22;;;15.60;63.30;;;;;;6114807;28;20031;-79
2022/12/21 12:59:32;;;;;;;15.23;5.88;;;15.60;63.10;;;;;;6126823;28;20481;-80
2022/12/21 13:07:00;;;;;;;15.70;6.55;;;15.60;63.30;;;;;;6230639;28;20332;-79
2022/12/21 13:10:23;;;;;;;17.42;6.55;;;15.70;63.30;;;;;;6240591;28;20506;-80
2022/12/21 13:13:37;;;;;;;16.60;7.57;;;15.80;63.40;;;;;;6221260;28;20041;-78
2022/12/21 13:16:53;;;;;;;11.82;5.85;;;15.80;63.40;;;;;;6202506;28;20121;-79
2022/12/21 13:19:58;;;;;;;17.00;6.60;;;15.90;63.60;;;;;;6209244;28;20042;-79
2022/12/21 13:23:11;;;;;;;25.23;11.30;;;15.80;63.40;;;;;;6192569;28;20129;-79
2022/12/21 13:26:29;;;;;;;17.95;6.72;;;15.80;63.30;;;;;;6193453;28;20046;-78
2022/12/21 13:29:36;;;;;;;23.38;9.57;;;15.70;63.30;;;;;;6174651;28;20034;-79
2022/12/21 13:32:40;;;;;;;14.95;7.55;;;15.70;63.50;;;;;;6244338;28;20546;-80
2022/12/21 13:35:46;;;;;;;18.30;5.78;;;15.60;63.50;;;;;;6236097;28;20144;-79
2022/12/21 13:38:53;;;;;;;14.48;6.03;;;15.60;63.50;;;;;;6219226;28;20042;-80
2022/12/21 13:42:14;;;;;;;8.07;4.40;;;15.60;63.60;;;;;;6235882;28;20469;-79
2022/12/21 13:45:52;;;;;;;14.18;6.32;;;15.60;63.60;;;;;;6200000;28;20379;-78
2022/12/21 13:49:26;;;;;;;18.13;5.88;;;15.60;63.60;;;;;;6196150;28;20046;-79
2022/12/21 13:52:52;;;;;;;16.75;7.68;;;15.60;63.50;;;;;;6200407;28;20046;-79
2022/12/21 13:56:28;;;;;;;13.60;6.25;;;15.60;63.50;;;;;;6196310;28;20204;-79
2022/12/21 13:59:56;;;;;;;16.48;6.50;;;15.60;63.60;;;;;;6205878;28;20049;-79
2022/12/21 14:03:33;;;;;;;11.35;5.22;;;15.60;63.60;;;;;;6184277;28;20037;-81
2022/12/21 14:06:39;;;;;;;18.30;5.40;;;15.60;63.60;;;;;;6191428;28;20039;-79
2022/12/21 14:09:59;;;;;;;9.10;4.22;;;15.60;63.60;;;;;;6189897;28;20050;-80
2022/12/21 14:13:02;;;;;;;16.90;5.63;;;15.60;63.60;;;;;;6184636;28;20460;-79
2022/12/21 14:16:14;;;;;;;19.25;7.82;;;15.60;63.50;;;;;;6193421;28;20391;-78
2022/12/21 14:19:20;;;;;;;20.30;4.88;;;15.70;63.50;;;;;;6208472;28;20519;-78
2022/12/21 14:22:35;;;;;;;14.98;6.38;;;15.70;63.50;;;;;;6192812;28;20041;-78
2022/12/21 14:25:43;;;;;;;14.38;6.13;;;15.70;63.60;;;;;;6195080;28;20370;-79
2022/12/21 14:28:47;;;;;;;17.77;7.07;;;15.60;63.60;;;;;;6242986;28;20041;-79
2022/12/21 14:32:12;;;;;;;24.67;10.43;;;15.70;63.60;;;;;;6253352;28;20119;-79
2022/12/21 14:35:43;;;;;;;22.83;6.38;;;15.70;63.70;;;;;;6231268;28;20073;-78
2022/12/21 14:39:26;;;;;;;18.90;8.27;;;15.60;63.60;;;;;;6219444;28;20107;-79
2022/12/21 14:42:51;;;;;;;11.43;5.43;;;15.60;63.60;;;;;;6248440;28;20045;-79
2022/12/21 14:45:52;;;;;;;22.30;8.00;;;15.70;63.60;;;;;;6242460;28;20377;-79
2022/12/21 14:49:07;;;;;;;25.45;9.90;;;15.70;63.40;;;;;;6242758;28;20042;-79
2022/12/21 14:52:31;;;;;;;15.57;7.78;;;15.80;63.30;;;;;;6259034;28;20116;-79
2022/12/21 14:55:41;;;;;;;14.23;5.10;;;15.80;63.10;;;;;;6244207;28;20044;-78
2022/12/21 14:58:58;;;;;;;16.88;6.82;;;15.80;62.80;;;;;;6257533;28;20109;-78
2022/12/21 15:02:01;;;;;;;29.27;11.75;;;15.80;62.70;;;;;;6219410;28;20479;-79
2022/12/21 15:05:05;;;;;;;26.13;10.07;;;15.80;62.60;;;;;;6255198;28;20482;-78
2022/12/21 15:08:12;;;;;;;18.92;6.57;;;15.70;62.60;;;;;;6257585;28;20144;-79
2022/12/21 15:11:18;;;;;;;10.80;5.63;;;15.70;62.60;;;;;;6244903;28;20111;-78
2022/12/21 15:14:38;;;;;;;10.07;4.50;;;15.60;62.60;;;;;;6242504;28;20050;-79
2022/12/21 15:17:39;;;;;;;15.63;6.88;;;15.60;62.80;;;;;;6266153;28;20335;-81
2022/12/21 15:20:49;;;;;;;20.10;8.15;;;15.50;62.90;;;;;;6238104;28;20029;-79
2022/12/21 15:23:52;;;;;;;16.67;7.38;;;15.50;63.30;;;;;;6257276;28;20439;-78
2022/12/21 15:27:05;;;;;;;19.20;7.18;;;15.50;63.40;;;;;;6231120;28;20056;-78
2022/12/21 15:30:20;;;;;;;13.00;5.25;;;15.50;63.70;;;;;;6217064;28;20061;-78
2022/12/21 15:33:27;;;;;;;10.95;6.43;;;15.40;63.70;;;;;;6240936;28;20630;-79
2022/12/21 15:36:35;;;;;;;13.68;4.93;;;15.40;63.90;;;;;;6271508;28;20450;-80
2022/12/21 15:39:40;;;;;;;11.60;6.00;;;15.40;63.90;;;;;;6238799;28;20444;-80
2022/12/21 15:42:45;;;;;;;16.70;5.13;;;15.30;63.90;;;;;;6240069;28;20045;-79
2022/12/21 15:45:49;;;;;;;10.50;5.22;;;15.30;64.00;;;;;;6219066;28;20041;-78
2022/12/21 15:48:59;;;;;;;14.88;6.85;;;15.30;64.00;;;;;;6216135;28;20041;-79
2022/12/21 15:52:00;;;;;;;11.90;4.28;;;15.30;64.00;;;;;;6217253;28;20133;-79
2022/12/21 15:55:12;;;;;;;11.05;4.55;;;15.20;63.90;;;;;;6216609;28;20107;-79
2022/12/21 15:58:17;;;;;;;14.00;5.43;;;15.20;63.90;;;;;;6224831;28;20478;-79
2022/12/21 16:01:25;;;;;;;20.35;7.55;;;15.20;64.00;;;;;;6221467;28;20037;-80
2022/12/21 16:04:26;;;;;;;15.35;8.02;;;15.30;64.30;;;;;;6261010;28;20032;-79
2022/12/21 16:07:28;;;;;;;22.48;9.85;;;15.20;64.40;;;;;;6258786;28;20086;-79
2022/12/21 16:10:37;;;;;;;24.52;9.65;;;15.10;64.60;;;;;;6232596;28;20042;-78
2022/12/21 16:13:39;;;;;;;20.00;7.57;;;15.10;64.90;;;;;;6216932;28;20033;-78
2022/12/21 16:16:53;;;;;;;19.85;8.10;;;15.10;65.00;;;;;;6255435;28;20065;-79
2022/12/21 16:19:56;;;;;;;17.85;6.13;;;15.10;65.20;;;;;;6244911;28;20064;-78
2022/12/21 16:22:58;;;;;;;13.70;5.50;;;15.10;65.30;;;;;;6258831;28;20025;-79
2022/12/21 16:26:00;;;;;;;20.67;8.07;;;15.00;65.10;;;;;;6243017;28;20037;-78
2022/12/21 16:29:06;;;;;;;39.00;17.27;;;15.00;65.20;;;;;;6243580;28;20080;-79
2022/12/21 16:32:15;;;;;;;16.55;8.00;;;15.00;65.30;;;;;;6235764;28;20590;-79